Time;durP1;ratioP1;P1;durP2;ratioP2;P2;SDS_P1;SDS_P2;PMS_P1;PMS_P2;Temp;Humidity;BMP_temperature;BMP_pressure;BME280_temperature;BME280_humidity;BME280_pressure;Samples;Min_cycle;Max_cycle;Signal;HPM_P1;HPM_P2
2022/12/19 00:00:34;;;;;;;16.35;6.43;;;;;;;-0.68;100.00;101861.28;10373604;28;20046;-60
2022/12/19 00:05:38;;;;;;;3.38;3.28;;;;;;;-0.64;100.00;101852.75;10373838;28;20050;-60
2022/12/19 00:10:40;;;;;;;11.93;5.63;;;;;;;-0.67;100.00;101846.69;10373411;28;20053;-60
2022/12/19 00:15:42;;;;;;;6.70;5.40;;;;;;;-0.64;100.00;101831.28;10373970;28;20053;-60
2022/12/19 00:20:52;;;;;;;7.22;4.43;;;;;;;-0.62;100.00;101840.75;10373029;28;20050;-60
2022/12/19 00:25:55;;;;;;;0.68;0.68;;;;;;;-0.51;100.00;101829.66;10372971;28;20054;-60
2022/12/19 00:31:00;;;;;;;20.98;5.47;;;;;;;-0.57;100.00;101831.34;10355133;28;20060;-59
2022/12/19 00:36:12;;;;;;;13.63;4.03;;;;;;;-0.57;100.00;101825.34;10355766;28;20050;-59
2022/12/19 00:41:16;;;;;;;1.65;1.65;;;;;;;-0.46;100.00;101822.81;10375686;28;20053;-60
2022/12/19 00:46:18;;;;;;;7.18;4.65;;;;;;;-0.52;100.00;101807.34;10379399;28;20560;-60
2022/12/19 00:51:27;;;;;;;12.77;6.53;;;;;;;-0.52;100.00;101800.50;10379607;28;20046;-60
2022/12/19 00:56:31;;;;;;;23.55;9.80;;;;;;;-0.49;100.00;101800.50;10378898;28;20493;-60
2022/12/19 01:01:40;;;;;;;17.30;6.03;;;;;;;-0.47;100.00;101779.91;10379995;28;20049;-59
2022/12/19 01:06:43;;;;;;;13.05;5.32;;;;;;;-0.44;100.00;101741.34;10362125;28;20056;-60
2022/12/19 01:17:06;;;;;;;6.05;2.38;;;;;;;-0.26;100.00;101750.84;10378103;28;20049;-60
2022/12/19 01:22:08;;;;;;;9.93;3.80;;;;;;;-0.29;100.00;101751.69;10379175;28;20049;-60
2022/12/19 01:27:11;;;;;;;1.73;1.63;;;;;;;-0.16;100.00;101757.72;10378389;28;20050;-60
2022/12/19 01:32:13;;;;;;;10.32;2.15;;;;;;;-0.07;100.00;101754.31;10377609;28;20050;-60
2022/12/19 01:37:15;;;;;;;3.67;3.35;;;;;;;0.01;100.00;101739.72;10377682;28;20173;-60
2022/12/19 01:42:20;;;;;;;9.45;4.75;;;;;;;-0.03;100.00;101735.44;10377657;28;20096;-60
2022/12/19 01:47:25;;;;;;;8.65;5.57;;;;;;;0.02;100.00;101726.00;10377185;28;20050;-60
2022/12/19 01:52:27;;;;;;;36.33;11.38;;;;;;;0.08;100.00;101720.84;10377951;28;20108;-59
2022/12/19 01:57:30;;;;;;;3.30;2.75;;;;;;;0.07;100.00;101721.72;10360474;28;20124;-59
2022/12/19 02:02:45;;;;;;;8.55;3.25;;;;;;;0.16;100.00;101719.16;10377069;28;20096;-59
2022/12/19 02:07:49;;;;;;;1.80;1.70;;;;;;;0.16;100.00;101716.56;10377506;28;20049;-60
2022/12/19 02:12:51;;;;;;;3.35;2.85;;;;;;;0.21;100.00;101700.28;10358372;28;20404;-60
2022/12/19 02:18:11;;;;;;;11.65;4.82;;;;;;;0.15;100.00;101699.41;10376484;28;20410;-59
2022/12/19 02:23:46;;;;;;;3.78;3.58;;;;;;;0.24;100.00;101675.38;10376818;28;20116;-59
2022/12/19 02:29:22;;;;;;;3.10;1.52;;;;;;;0.23;100.00;101678.78;10376148;28;20054;-60
2022/12/19 02:34:27;;;;;;;5.68;4.82;;;;;;;0.39;100.00;101671.94;10376476;28;20049;-60
2022/12/19 02:39:42;;;;;;;0.93;0.93;;;;;;;0.45;100.00;101664.16;10376298;28;20065;-60
2022/12/19 02:44:50;;;;;;;11.13;5.05;;;;;;;0.49;100.00;101668.47;10375054;28;20405;-60
2022/12/19 02:49:53;;;;;;;2.65;2.45;;;;;;;0.63;100.00;101676.19;10357338;28;20394;-60
2022/12/19 02:55:05;;;;;;;3.47;2.63;;;;;;;0.65;100.00;101661.56;10375766;28;20057;-59
2022/12/19 03:00:18;;;;;;;20.75;7.80;;;;;;;0.73;100.00;101654.66;10375585;28;20052;-59
2022/12/19 03:05:31;;;;;;;5.93;1.75;;;;;;;0.77;100.00;101642.63;10357995;28;20064;-59
2022/12/19 03:10:43;;;;;;;10.90;6.50;;;;;;;0.77;100.00;101634.88;10375316;28;20104;-60
2022/12/19 03:15:46;;;;;;;0.45;0.45;;;;;;;0.89;100.00;101632.28;10357872;28;20059;-60
2022/12/19 03:21:22;;;;;;;4.65;0.65;;;;;;;0.96;100.00;101622.81;10374351;28;20114;-60
2022/12/19 03:26:30;;;;;;;15.82;7.18;;;;;;;0.87;100.00;101633.13;10374797;28;20050;-60
2022/12/19 03:31:33;;;;;;;1.02;1.02;;;;;;;1.01;100.00;101626.22;10356784;28;20412;-60
2022/12/19 03:36:48;;;;;;;3.08;1.73;;;;;;;0.94;100.00;101606.47;10356647;28;20448;-60
2022/12/19 03:47:20;;;;;;;8.57;2.35;;;;;;;1.15;100.00;101620.13;10359934;28;20100;-60
2022/12/19 03:52:38;;;;;;;3.67;1.13;;;;;;;1.18;100.00;101597.75;10357125;28;20057;-60
2022/12/19 03:57:45;;;;;;;15.75;5.13;;;;;;;1.11;100.00;101601.25;10373862;28;20116;-60
2022/12/19 04:02:50;;;;;;;4.97;4.50;;;;;;;1.29;100.00;101601.16;10370508;22;20320;-60
2022/12/19 04:07:56;;;;;;;5.05;2.25;;;;;;;1.41;100.00;101602.78;10453866;28;20513;-60
2022/12/19 04:13:06;;;;;;;14.82;6.60;;;;;;;1.39;100.00;101586.44;10454413;28;20404;-60
2022/12/19 04:18:09;;;;;;;2.70;2.50;;;;;;;1.46;100.00;101593.28;10419917;28;20076;-60
2022/12/19 04:23:19;;;;;;;6.25;2.85;;;;;;;1.54;100.00;101600.13;10420571;28;20049;-60
2022/12/19 04:28:24;;;;;;;0.40;0.40;;;;;;;1.63;100.00;101587.13;10407039;28;20061;-60
2022/12/19 04:33:26;;;;;;;30.98;10.77;;;;;;;1.57;100.00;101575.13;10462565;28;20041;-60
2022/12/19 04:38:28;;;;;;;7.72;4.68;;;;;;;1.64;100.00;101578.53;10462510;28;20103;-60
2022/12/19 04:43:31;;;;;;;3.25;2.15;;;;;;;1.61;100.00;101566.47;10462827;28;20098;-60
2022/12/19 04:48:35;;;;;;;3.67;2.15;;;;;;;1.76;100.00;101575.84;10462791;28;20075;-60
2022/12/19 04:53:38;;;;;;;3.38;3.17;;;;;;;1.93;100.00;101564.50;10461894;28;20049;-60
2022/12/19 04:58:40;;;;;;;1.83;1.65;;;;;;;1.90;100.00;101562.81;10462410;28;20044;-60
2022/12/19 05:03:43;;;;;;;3.42;2.05;;;;;;;1.94;100.00;101568.81;10444219;28;20057;-60
2022/12/19 05:08:45;;;;;;;3.28;3.00;;;;;;;2.03;100.00;101579.91;10460709;28;20143;-60
2022/12/19 05:13:48;;;;;;;7.75;3.65;;;;;;;2.16;100.00;101574.63;10461104;28;20045;-60
2022/12/19 05:18:53;;;;;;;6.72;4.40;;;;;;;2.06;100.00;101573.84;10461007;28;20067;-60
2022/12/19 05:23:55;;;;;;;5.05;2.10;;;;;;;2.16;100.00;101566.88;10460643;28;20056;-60
2022/12/19 05:28:57;;;;;;;5.22;3.35;;;;;;;2.25;100.00;101565.91;10459311;28;20056;-60
2022/12/19 05:34:00;;;;;;;0.65;0.40;;;;;;;2.45;100.00;101574.31;10460383;28;20051;-60
2022/12/19 05:39:02;;;;;;;3.28;3.05;;;;;;;2.39;100.00;101567.47;10460149;28;20064;-60
2022/12/19 05:44:04;;;;;;;8.50;5.05;;;;;;;2.49;100.00;101559.63;10459919;28;20056;-60
2022/12/19 05:49:07;;;;;;;1.13;0.82;;;;;;;2.47;100.00;101572.59;10460457;28;20107;-60
2022/12/19 05:54:09;;;;;;;2.78;1.80;;;;;;;2.66;100.00;101570.63;10459462;28;20106;-60
2022/12/19 05:59:11;;;;;;;0.45;0.45;;;;;;;2.60;100.00;101563.78;10460100;28;20064;-60
2022/12/19 06:04:14;;;;;;;1.17;0.98;;;;;;;2.67;100.00;101556.81;10458617;28;20057;-60
2022/12/19 06:09:16;;;;;;;0.35;0.35;;;;;;;2.67;100.00;101561.13;10459030;28;20514;-60
2022/12/19 06:14:19;;;;;;;14.77;6.88;;;;;;;2.85;100.00;101566.06;10459402;28;20123;-60
2022/12/19 06:19:22;;;;;;;1.98;1.80;;;;;;;2.85;100.00;101570.41;10457921;28;20495;-60
2022/12/19 06:24:24;;;;;;;0.45;0.45;;;;;;;3.02;100.00;101576.19;10458307;28;20132;-60
2022/12/19 06:29:27;;;;;;;9.40;5.25;;;;;;;3.07;100.00;101579.56;10458817;28;20103;-60
2022/12/19 06:34:29;;;;;;;0.10;0.10;;;;;;;3.13;100.00;101576.91;10457299;28;20049;-60
2022/12/19 06:39:51;;;;;;;0.28;0.28;;;;;;;3.32;100.00;101589.59;10457048;28;20056;-60
2022/12/19 06:44:54;;;;;;;2.80;0.52;;;;;;;3.41;100.00;101593.78;10457548;28;20095;-60
2022/12/19 06:49:57;;;;;;;13.40;5.25;;;;;;;3.64;100.00;101593.44;10457214;28;20092;-60
2022/12/19 06:55:00;;;;;;;0.28;0.28;;;;;;;3.71;100.00;101587.25;10457334;28;20055;-60
2022/12/19 07:00:02;;;;;;;5.75;3.42;;;;;;;3.86;100.00;101587.00;10455989;28;20049;-60
2022/12/19 07:05:06;;;;;;;5.03;1.75;;;;;;;3.84;100.00;101593.09;10456355;28;20045;-60
2022/12/19 07:10:09;;;;;;;1.48;0.40;;;;;;;3.87;100.00;101588.72;10456096;28;20053;-60
2022/12/19 07:15:12;;;;;;;0.70;0.68;;;;;;;3.86;100.00;101594.78;10456635;28;20049;-61
2022/12/19 07:20:15;;;;;;;8.57;4.13;;;;;;;3.84;100.00;101596.53;10456426;28;20099;-60
2022/12/19 07:25:17;;;;;;;0.10;0.10;;;;;;;4.00;100.00;101604.06;10454589;28;20092;-60
2022/12/19 07:30:21;;;;;;;0.15;0.15;;;;;;;4.19;100.00;101600.28;10455724;28;20049;-60
2022/12/19 07:35:23;;;;;;;3.03;2.92;;;;;;;4.34;100.00;101598.25;10456166;28;20053;-60
2022/12/19 07:40:25;;;;;;;1.23;1.13;;;;;;;4.60;100.00;101595.19;10455834;28;20049;-60
2022/12/19 07:45:28;;;;;;;0.90;0.47;;;;;;;4.91;100.00;101587.63;10455889;28;20056;-60
2022/12/19 07:50:30;;;;;;;12.30;6.03;;;;;;;5.20;100.00;101604.31;10459795;28;20088;-60
2022/12/19 07:55:33;;;;;;;4.03;1.77;;;;;;;5.41;100.00;101600.38;10464210;28;20049;-60
2022/12/19 08:00:36;;;;;;;1.60;1.25;;;;;;;5.48;100.00;101606.28;10464571;28;20045;-61
2022/12/19 08:05:38;;;;;;;2.35;2.25;;;;;;;5.54;100.00;101611.34;10463098;28;20102;-61
2022/12/19 08:10:41;;;;;;;1.38;1.23;;;;;;;5.72;100.00;101605.72;10463111;28;20048;-61
2022/12/19 08:15:43;;;;;;;4.55;1.80;;;;;;;5.75;100.00;101615.19;10463252;28;20052;-61
2022/12/19 08:20:46;;;;;;;5.05;2.75;;;;;;;5.97;100.00;101612.06;10462846;28;20049;-60
2022/12/19 08:25:48;;;;;;;1.65;1.55;;;;;;;5.80;100.00;101618.53;10463105;28;20603;-61
2022/12/19 08:30:51;;;;;;;8.40;2.70;;;;;;;5.70;100.00;101617.88;10441322;28;20045;-61
2022/12/19 08:35:53;;;;;;;0.20;0.20;;;;;;;5.75;100.00;101621.22;10441509;28;20133;-61
2022/12/19 08:40:56;;;;;;;2.45;1.23;;;;;;;6.03;100.00;101628.38;10463079;28;20041;-60
2022/12/19 08:45:58;;;;;;;0.17;0.17;;;;;;;6.03;100.00;101632.72;10462133;28;20061;-61
2022/12/19 08:51:03;;;;;;;0.75;0.75;;;;;;;6.14;100.00;101625.50;10454687;28;20378;-61
2022/12/19 08:56:16;;;;;;;1.27;1.10;;;;;;;6.03;100.00;101610.16;10438457;28;20094;-61
2022/12/19 09:01:22;;;;;;;2.53;0.63;;;;;;;5.99;100.00;101607.72;10461363;28;20041;-61
2022/12/19 09:06:25;;;;;;;2.00;0.38;;;;;;;5.88;100.00;101616.56;10470185;28;20060;-60
2022/12/19 09:11:28;;;;;;;3.03;0.93;;;;;;;5.95;100.00;101618.16;10481635;28;20125;-61
2022/12/19 09:16:30;;;;;;;2.63;1.35;;;;;;;6.06;100.00;101623.09;10472234;28;20053;-61
2022/12/19 09:21:33;;;;;;;1.85;1.75;;;;;;;5.91;100.00;101618.25;10420282;28;20049;-61
2022/12/19 09:26:38;;;;;;;0.65;0.65;;;;;;;6.10;100.00;101623.88;10433369;28;20548;-61
2022/12/19 09:31:40;;;;;;;0.88;0.88;;;;;;;6.07;100.00;101629.13;10477573;28;20464;-61
2022/12/19 09:36:42;;;;;;;0.30;0.30;;;;;;;6.32;100.00;101630.25;10478272;28;20518;-61
2022/12/19 09:42:18;;;;;;;0.55;0.55;;;;;;;6.26;100.00;101625.19;10466144;28;20495;-61
2022/12/19 09:47:27;;;;;;;0.17;0.17;;;;;;;6.39;100.00;101640.47;10454958;28;20056;-61
2022/12/19 09:52:36;;;;;;;1.27;1.20;;;;;;;6.41;100.00;101630.91;10458220;28;20484;-61
2022/12/19 09:57:46;;;;;;;4.18;3.80;;;;;;;6.38;100.00;101630.97;10436676;28;20048;-61
2022/12/19 10:03:10;;;;;;;24.08;2.20;;;;;;;6.30;100.00;101645.03;10442728;28;20056;-61
2022/12/19 10:08:19;;;;;;;1.45;1.35;;;;;;;6.48;100.00;101635.88;10434206;28;20411;-61
2022/12/19 10:13:59;;;;;;;0.30;0.30;;;;;;;6.44;100.00;101631.66;10445479;28;20484;-61
2022/12/19 10:19:16;;;;;;;0.55;0.55;;;;;;;6.50;100.00;101631.47;10424520;28;20413;-61
2022/12/19 10:24:30;;;;;;;0.13;0.13;;;;;;;6.48;100.00;101643.69;10432369;28;20049;-61
2022/12/19 10:29:48;;;;;;;0.25;0.25;;;;;;;6.59;100.00;101634.72;10451552;28;20053;-61
2022/12/19 10:34:51;;;;;;;1.30;1.20;;;;;;;6.65;100.00;101626.75;10447049;28;20049;-61
2022/12/19 10:40:12;;;;;;;0.70;0.70;;;;;;;6.86;100.00;101627.91;10457785;28;20045;-61
2022/12/19 10:45:36;;;;;;;0.65;0.45;;;;;;;6.90;100.00;101623.47;10448928;28;20604;-61
2022/12/19 10:50:40;;;;;;;0.47;0.47;;;;;;;6.77;100.00;101612.56;10497872;28;20408;-61
2022/12/19 10:55:50;;;;;;;3.55;0.93;;;;;;;6.79;100.00;101601.22;10499328;28;20200;-61
2022/12/19 11:01:29;;;;;;;0.98;0.63;;;;;;;6.88;100.00;101600.09;10431290;28;20448;-61
2022/12/19 11:06:52;;;;;;;0.10;0.10;;;;;;;6.97;100.00;101610.22;10468477;28;20059;-61
2022/12/19 11:12:05;;;;;;;1.77;1.35;;;;;;;6.97;100.00;101609.38;10497798;28;20041;-61
2022/12/19 11:17:36;;;;;;;0.40;0.40;;;;;;;7.04;100.00;101610.88;10474271;28;20472;-61
2022/12/19 11:23:02;;;;;;;0.50;0.50;;;;;;;7.04;100.00;101598.75;10455414;28;20459;-61
2022/12/19 11:28:33;;;;;;;4.88;2.33;;;;;;;7.21;100.00;101592.16;10456241;28;20119;-61
2022/12/19 11:34:04;;;;;;;1.85;1.60;;;;;;;7.01;100.00;101592.75;10467776;28;20048;-61
2022/12/19 11:39:22;;;;;;;1.45;1.45;;;;;;;7.21;100.00;101602.56;10498491;28;20052;-61
2022/12/19 11:44:39;;;;;;;2.05;1.85;;;;;;;7.29;100.00;101577.13;10458865;28;20049;-61
2022/12/19 11:49:44;;;;;;;0.80;0.80;;;;;;;7.24;100.00;101566.00;10451734;28;20053;-61
2022/12/19 11:54:58;;;;;;;0.25;0.25;;;;;;;7.36;100.00;101576.06;10454735;28;20056;-61
2022/12/19 12:00:01;;;;;;;1.90;1.80;;;;;;;7.37;100.00;101558.69;10440787;28;20106;-61
2022/12/19 12:05:43;;;;;;;0.40;0.40;;;;;;;7.44;100.00;101545.38;10453199;28;20061;-61
2022/12/19 12:10:56;;;;;;;0.10;0.10;;;;;;;7.57;100.00;101534.59;10454040;28;20049;-61
2022/12/19 12:16:23;;;;;;;0.10;0.10;;;;;;;7.55;100.00;101525.97;10454001;28;20079;-61
2022/12/19 12:22:05;;;;;;;2.15;1.52;;;;;;;7.53;100.00;101523.41;10460539;28;20080;-61
2022/12/19 12:27:51;;;;;;;0.10;0.10;;;;;;;7.69;100.00;101518.53;10467320;28;20048;-61
2022/12/19 12:33:33;;;;;;;0.32;0.32;;;;;;;8.18;100.00;101521.19;10428629;28;20135;-61
2022/12/19 12:39:01;;;;;;;0.10;0.10;;;;;;;8.01;100.00;101503.53;10458112;28;20144;-61
2022/12/19 12:44:08;;;;;;;0.47;0.47;;;;;;;7.86;100.00;101499.69;10459698;28;20052;-61
2022/12/19 12:49:37;;;;;;;2.58;0.95;;;;;;;8.05;100.00;101488.63;10459699;28;20049;-61
2022/12/19 12:54:43;;;;;;;0.10;0.10;;;;;;;8.06;100.00;101472.91;10460995;28;20045;-61
2022/12/19 12:59:46;;;;;;;1.13;1.13;;;;;;;7.72;100.00;101494.13;10462061;28;20053;-61
2022/12/19 13:04:59;;;;;;;0.10;0.10;;;;;;;8.24;100.00;101470.53;10460684;28;20519;-61
2022/12/19 13:10:18;;;;;;;0.10;0.10;;;;;;;8.31;100.00;101485.91;10427408;28;20053;-61
2022/12/19 13:15:31;;;;;;;0.10;0.10;;;;;;;8.13;100.00;101473.56;10419617;28;20041;-61
2022/12/19 13:20:45;;;;;;;0.20;0.20;;;;;;;8.32;100.00;101464.16;10459367;28;20057;-61
2022/12/19 13:25:52;;;;;;;1.05;0.93;;;;;;;8.17;100.00;101441.25;10460083;28;20115;-61
2022/12/19 13:31:04;;;;;;;0.40;0.40;;;;;;;8.06;100.00;101432.97;10461398;28;20103;-61
2022/12/19 13:36:45;;;;;;;0.57;0.57;;;;;;;8.09;100.00;101402.41;10458913;28;20056;-61
2022/12/19 13:47:41;;;;;;;0.75;0.75;;;;;;;8.19;100.00;101388.09;10458008;28;20053;-62
2022/12/19 13:52:48;;;;;;;0.10;0.10;;;;;;;8.16;100.00;101401.25;10460535;28;20099;-61
2022/12/19 13:57:54;;;;;;;0.10;0.10;;;;;;;8.21;100.00;101384.59;10459412;28;20049;-61
2022/12/19 14:02:58;;;;;;;0.73;0.73;;;;;;;8.26;100.00;101378.28;10458256;28;20114;-61
2022/12/19 14:08:02;;;;;;;1.67;0.85;;;;;;;8.11;100.00;101365.81;10459771;28;20077;-61
2022/12/19 14:18:50;;;;;;;0.10;0.10;;;;;;;8.22;100.00;101354.97;10456928;28;20135;-61
2022/12/19 14:24:09;;;;;;;0.25;0.25;;;;;;;8.23;100.00;101347.09;10457801;28;20098;-61
2022/12/19 14:29:23;;;;;;;0.00;0.00;;;;;;;8.10;100.00;101354.56;10458260;28;20056;-61
2022/12/19 14:34:47;;;;;;;0.10;0.10;;;;;;;8.03;100.00;101347.00;10454883;28;20049;-61
2022/12/19 14:40:31;;;;;;;0.20;0.20;;;;;;;8.04;100.00;101338.28;10480196;28;20174;-61
2022/12/19 14:45:53;;;;;;;0.98;0.98;;;;;;;7.93;100.00;101346.50;10456008;28;20266;-68
2022/12/19 14:51:33;;;;;;;0.30;0.30;;;;;;;7.92;100.00;101345.66;10455588;28;20484;-68
2022/12/19 14:57:00;;;;;;;0.75;0.75;;;;;;;7.82;100.00;101352.97;10450823;28;20128;-66
2022/12/19 15:02:06;;;;;;;1.77;1.67;;;;;;;7.97;100.00;101330.69;10451049;28;20475;-66
2022/12/19 15:07:17;;;;;;;0.10;0.10;;;;;;;7.86;100.00;101335.44;10429819;28;20058;-66
2022/12/19 15:18:31;;;;;;;0.43;0.40;;;;;;;7.98;100.00;101340.22;10415563;28;20698;-64
2022/12/19 15:23:36;;;;;;;1.20;1.10;;;;;;;7.81;100.00;101337.38;10415464;28;20515;-62
2022/12/19 15:28:41;;;;;;;0.65;0.65;;;;;;;7.71;100.00;101347.28;10416069;28;20049;-68
2022/12/19 15:33:43;;;;;;;0.10;0.10;;;;;;;7.81;100.00;101343.44;10416044;28;20046;-64
2022/12/19 15:39:06;;;;;;;0.10;0.10;;;;;;;8.07;100.00;101366.84;10415699;28;20046;-64
2022/12/19 15:44:14;;;;;;;2.63;0.88;;;;;;;8.29;100.00;101367.72;10415658;28;20060;-64
2022/12/19 15:49:18;;;;;;;0.10;0.10;;;;;;;7.82;100.00;101375.59;10430759;28;20052;-64
2022/12/19 15:54:21;;;;;;;0.20;0.20;;;;;;;8.01;100.00;101365.31;10414194;28;20050;-64
2022/12/19 15:59:45;;;;;;;0.10;0.10;;;;;;;8.31;100.00;101359.84;10414444;28;20084;-64
2022/12/19 16:04:47;;;;;;;0.65;0.65;;;;;;;8.05;100.00;101355.63;10414742;28;20100;-64
2022/12/19 16:09:50;;;;;;;0.10;0.10;;;;;;;8.25;100.00;101365.28;10414886;28;20045;-64
2022/12/19 16:14:58;;;;;;;0.40;0.40;;;;;;;8.31;100.00;101358.06;10404959;28;20052;-64
2022/12/19 16:20:00;;;;;;;0.20;0.20;;;;;;;8.38;100.00;101356.91;10429197;22;20054;-68
2022/12/19 16:25:03;;;;;;;26.40;1.33;;;;;;;8.30;100.00;101347.69;10422572;28;20041;-68
2022/12/19 16:30:21;;;;;;;0.30;0.30;;;;;;;8.19;100.00;101351.56;10422496;28;20049;-68
2022/12/19 16:35:24;;;;;;;0.13;0.13;;;;;;;8.38;100.00;101343.03;10420905;28;20045;-67
2022/12/19 16:40:49;;;;;;;0.20;0.20;;;;;;;8.56;100.00;101357.16;10420445;28;20468;-67
2022/12/19 16:45:51;;;;;;;0.10;0.10;;;;;;;8.59;100.00;101364.88;10420034;28;20476;-67
2022/12/19 16:51:01;;;;;;;0.20;0.20;;;;;;;8.61;100.00;101370.00;10420353;28;20534;-67
2022/12/19 16:56:04;;;;;;;0.10;0.10;;;;;;;8.51;100.00;101379.97;10403493;28;20053;-68
2022/12/19 17:01:09;;;;;;;0.47;0.47;;;;;;;8.65;100.00;101369.81;10377665;28;20076;-68
2022/12/19 17:06:14;;;;;;;0.25;0.25;;;;;;;8.44;100.00;101363.72;10378326;28;20089;-68
2022/12/19 17:11:22;;;;;;;0.20;0.20;;;;;;;8.46;100.00;101351.44;10378004;28;20497;-67
2022/12/19 17:16:24;;;;;;;2.67;1.45;;;;;;;8.37;100.00;101339.59;10362655;28;20041;-67
2022/12/19 17:21:27;;;;;;;1.27;1.17;;;;;;;8.52;100.00;101325.13;10360698;28;20065;-68
2022/12/19 17:26:29;;;;;;;3.33;3.05;;;;;;;8.48;100.00;101325.28;10378819;28;20042;-68
2022/12/19 17:31:37;;;;;;;0.85;0.85;;;;;;;8.50;100.00;101339.97;10378559;28;20504;-68
2022/12/19 17:36:40;;;;;;;1.83;1.02;;;;;;;8.62;100.00;101337.78;10378237;28;20057;-69
2022/12/19 17:41:42;;;;;;;0.68;0.68;;;;;;;8.49;100.00;101334.78;10361350;28;20053;-68
2022/12/19 17:46:46;;;;;;;0.20;0.20;;;;;;;8.62;100.00;101343.84;10378440;28;20073;-69
2022/12/19 17:51:53;;;;;;;0.20;0.20;;;;;;;8.49;100.00;101342.63;10398720;28;20069;-68
2022/12/19 17:56:55;;;;;;;0.98;0.77;;;;;;;8.62;100.00;101343.00;10417649;28;20488;-69
2022/12/19 18:01:58;;;;;;;0.25;0.25;;;;;;;8.68;100.00;101354.03;10417582;28;20427;-68
2022/12/19 18:07:01;;;;;;;0.20;0.20;;;;;;;8.76;100.00;101351.13;10387159;28;20048;-68
2022/12/19 18:12:04;;;;;;;0.30;0.30;;;;;;;8.76;100.00;101347.66;10417184;28;20140;-69
2022/12/19 18:17:06;;;;;;;0.10;0.10;;;;;;;8.69;100.00;101342.69;10419209;28;20446;-68
2022/12/19 18:22:17;;;;;;;0.20;0.20;;;;;;;8.77;100.00;101336.31;10416183;28;20088;-68
2022/12/19 18:27:19;;;;;;;0.20;0.20;;;;;;;8.65;100.00;101337.66;10408074;28;20045;-68
2022/12/19 18:32:22;;;;;;;0.15;0.15;;;;;;;8.68;100.00;101353.19;10407608;28;20045;-68
2022/12/19 18:37:24;;;;;;;1.25;0.63;;;;;;;8.74;100.00;101345.97;10405968;28;20050;-68
2022/12/19 18:42:27;;;;;;;2.72;0.35;;;;;;;8.64;100.00;101364.66;10442185;28;20056;-68
2022/12/19 18:47:29;;;;;;;0.22;0.22;;;;;;;8.54;100.00;101362.44;10445234;28;20050;-68
2022/12/19 18:52:32;;;;;;;0.10;0.10;;;;;;;8.79;100.00;101361.41;10396153;28;20042;-68
2022/12/19 18:57:34;;;;;;;0.88;0.70;;;;;;;8.86;100.00;101357.66;10376169;28;20060;-68
2022/12/19 19:02:37;;;;;;;1.10;0.93;;;;;;;8.71;100.00;101368.75;10406455;28;20056;-69
2022/12/19 19:07:39;;;;;;;0.22;0.22;;;;;;;8.74;100.00;101347.72;10413844;28;20049;-69
2022/12/19 19:12:41;;;;;;;0.10;0.10;;;;;;;8.95;100.00;101351.22;10416206;28;20046;-69
2022/12/19 19:17:47;;;;;;;0.20;0.20;;;;;;;8.82;100.00;101361.28;10397791;28;20060;-68
2022/12/19 19:22:50;;;;;;;0.93;0.93;;;;;;;8.78;100.00;101354.53;10397664;28;20046;-68
2022/12/19 19:27:52;;;;;;;0.10;0.10;;;;;;;8.73;100.00;101351.25;10396132;28;20409;-68
2022/12/19 19:32:58;;;;;;;0.20;0.20;;;;;;;8.68;100.00;101358.41;10415758;28;20107;-68
2022/12/19 19:38:05;;;;;;;0.32;0.32;;;;;;;8.68;100.00;101371.47;10409012;28;20068;-68
2022/12/19 19:43:07;;;;;;;0.10;0.10;;;;;;;8.72;100.00;101366.06;10397925;28;20075;-69
2022/12/19 19:48:10;;;;;;;2.28;0.75;;;;;;;8.76;100.00;101366.78;10400246;28;20046;-68
2022/12/19 19:53:12;;;;;;;0.15;0.15;;;;;;;8.76;100.00;101379.84;10423279;28;20053;-68
2022/12/19 19:58:15;;;;;;;0.38;0.30;;;;;;;8.73;100.00;101386.03;10423024;28;20057;-68
2022/12/19 20:03:17;;;;;;;0.55;0.55;;;;;;;8.65;100.00;101389.88;10403609;28;20046;-68
2022/12/19 20:08:24;;;;;;;0.10;0.10;;;;;;;8.71;100.00;101387.84;10421239;28;20133;-68
2022/12/19 20:13:29;;;;;;;0.30;0.30;;;;;;;8.72;100.00;101388.69;10421627;28;20480;-68
2022/12/19 20:18:31;;;;;;;0.60;0.60;;;;;;;8.66;100.00;101392.41;10421040;28;20404;-68
2022/12/19 20:23:34;;;;;;;0.10;0.10;;;;;;;8.53;100.00;101404.25;10421127;28;20053;-68
2022/12/19 20:28:36;;;;;;;0.80;0.80;;;;;;;8.42;100.00;101390.72;10387127;28;20049;-68
2022/12/19 20:33:51;;;;;;;0.47;0.47;;;;;;;8.52;100.00;101394.72;10422388;28;20046;-68
2022/12/19 20:38:54;;;;;;;1.27;1.17;;;;;;;8.54;100.00;101398.13;10415409;28;21666;-69
2022/12/19 20:43:56;;;;;;;0.20;0.20;;;;;;;8.73;100.00;101404.31;10388680;28;20050;-69
2022/12/19 20:48:59;;;;;;;0.10;0.10;;;;;;;8.55;100.00;101390.22;10380196;28;20049;-69
2022/12/19 20:54:03;;;;;;;0.20;0.20;;;;;;;8.36;100.00;101386.59;10379992;28;20049;-68
2022/12/19 20:59:05;;;;;;;0.10;0.10;;;;;;;8.44;100.00;101395.03;10383509;28;20053;-69
2022/12/19 21:04:08;;;;;;;0.20;0.20;;;;;;;8.50;100.00;101399.97;10416906;28;20119;-68
2022/12/19 21:09:11;;;;;;;0.20;0.20;;;;;;;8.47;100.00;101402.75;10420107;28;20054;-68
2022/12/19 21:14:13;;;;;;;0.52;0.52;;;;;;;8.55;100.00;101405.88;10419012;28;20407;-68
2022/12/19 21:19:15;;;;;;;0.70;0.70;;;;;;;8.38;100.00;101405.66;10419792;28;20571;-68
2022/12/19 21:24:18;;;;;;;0.52;0.52;;;;;;;8.33;100.00;101407.59;10417639;28;20480;-68
2022/12/19 21:29:20;;;;;;;0.10;0.10;;;;;;;8.42;100.00;101396.78;10398820;28;20053;-68
2022/12/19 21:34:22;;;;;;;4.18;1.60;;;;;;;8.50;100.00;101409.59;10379043;28;20042;-68
2022/12/19 21:39:25;;;;;;;0.10;0.10;;;;;;;8.38;100.00;101401.28;10378234;28;20058;-68
2022/12/19 21:44:28;;;;;;;0.57;0.57;;;;;;;8.46;100.00;101401.03;10402132;28;20056;-68
2022/12/19 21:49:30;;;;;;;0.57;0.30;;;;;;;8.34;100.00;101388.44;10415973;28;20389;-68
2022/12/19 21:54:32;;;;;;;0.10;0.10;;;;;;;8.55;100.00;101390.22;10422412;28;20463;-69
2022/12/19 21:59:35;;;;;;;0.52;0.52;;;;;;;8.10;100.00;101393.69;10418383;28;20056;-68
2022/12/19 22:04:38;;;;;;;0.20;0.20;;;;;;;8.12;100.00;101394.47;10417562;28;20041;-68
2022/12/19 22:09:40;;;;;;;0.10;0.10;;;;;;;8.01;100.00;101396.59;10416170;28;20550;-68
2022/12/19 22:14:43;;;;;;;0.20;0.20;;;;;;;8.17;100.00;101391.69;10398503;28;20061;-68
2022/12/19 22:19:46;;;;;;;0.10;0.10;;;;;;;8.14;100.00;101386.59;10395832;28;20059;-68
2022/12/19 22:24:48;;;;;;;0.73;0.73;;;;;;;8.16;100.00;101382.16;10413113;28;20047;-68
2022/12/19 22:29:50;;;;;;;0.30;0.30;;;;;;;8.34;100.00;101376.22;10412219;28;20056;-69
2022/12/19 22:34:53;;;;;;;0.32;0.32;;;;;;;8.16;100.00;101369.09;10436203;28;20044;-68
2022/12/19 22:39:58;;;;;;;0.75;0.40;;;;;;;8.40;100.00;101354.25;10422407;28;20050;-68
2022/12/19 22:45:01;;;;;;;0.20;0.20;;;;;;;8.18;100.00;101343.81;10426474;28;20102;-68
2022/12/19 22:50:03;;;;;;;0.10;0.10;;;;;;;8.28;100.00;101345.16;10435290;28;20550;-68
2022/12/19 22:55:06;;;;;;;0.10;0.10;;;;;;;8.27;100.00;101335.63;10410182;28;20057;-68
2022/12/19 23:00:11;;;;;;;0.10;0.10;;;;;;;8.39;100.00;101331.69;10416331;28;20100;-68
2022/12/19 23:05:13;;;;;;;0.17;0.17;;;;;;;8.12;100.00;101333.59;10406200;28;20489;-68
2022/12/19 23:10:16;;;;;;;1.58;1.48;;;;;;;8.49;100.00;101332.19;10421972;28;20064;-68
2022/12/19 23:15:18;;;;;;;0.20;0.20;;;;;;;8.40;100.00;101322.94;10442804;28;20049;-68
2022/12/19 23:20:20;;;;;;;0.98;0.60;;;;;;;8.51;100.00;101326.00;10419147;28;20060;-68
2022/12/19 23:25:23;;;;;;;0.10;0.10;;;;;;;8.22;100.00;101340.19;10438246;28;20053;-68
2022/12/19 23:30:26;;;;;;;0.10;0.10;;;;;;;8.56;100.00;101325.84;10427158;28;20106;-69
2022/12/19 23:35:29;;;;;;;0.43;0.43;;;;;;;8.67;100.00;101331.44;10417396;28;20390;-68
2022/12/19 23:40:31;;;;;;;0.20;0.20;;;;;;;8.57;100.00;101329.28;10417251;28;20045;-68
2022/12/19 23:45:37;;;;;;;0.30;0.30;;;;;;;8.80;100.00;101323.97;10409520;28;20424;-69
2022/12/19 23:50:40;;;;;;;0.20;0.20;;;;;;;9.06;100.00;101325.50;10421264;28;20049;-68
2022/12/19 23:55:42;;;;;;;0.50;0.50;;;;;;;8.98;100.00;101306.69;10437871;28;20099;-69
